createdAt,value
2022-07-31T00:00:23.986Z,100950.81
2022-07-31T00:02:51.692Z,100961.16
2022-07-31T00:05:19.303Z,100953.34
2022-07-31T00:07:46.973Z,100952.47
2022-07-31T00:10:15.102Z,100950.13
2022-07-31T00:12:42.751Z,100950.75
2022-07-31T00:15:11.017Z,100953.97
2022-07-31T00:17:39.929Z,100946.53
2022-07-31T00:20:08.529Z,100946.34
2022-07-31T00:22:36.154Z,100949.91
2022-07-31T00:25:04.551Z,100942.13
2022-07-31T00:27:32.356Z,100943.38
2022-07-31T00:30:00.005Z,100933.22
2022-07-31T00:32:27.846Z,100939.94
2022-07-31T00:34:55.490Z,100928.09
2022-07-31T00:37:23.272Z,100932.53
2022-07-31T00:39:50.901Z,100929.16
2022-07-31T00:42:19.625Z,100924.69
2022-07-31T00:44:47.787Z,100921.31
2022-07-31T00:47:17.128Z,100928.09
2022-07-31T00:49:45.519Z,100922.63
2022-07-31T00:52:13.185Z,100914.97
2022-07-31T00:54:40.916Z,100913.94
2022-07-31T00:57:09.081Z,100910.97
2022-07-31T00:59:37.627Z,100904.38
2022-07-31T01:02:05.238Z,100906.50
2022-07-31T01:04:32.859Z,100909.81
2022-07-31T01:07:01.691Z,100914.44
2022-07-31T01:09:29.782Z,100914.03
2022-07-31T01:12:18.911Z,100922.69
2022-07-31T01:14:48.880Z,100916.56
2022-07-31T01:17:17.329Z,100914.59
2022-07-31T01:19:46.314Z,100922.03
2022-07-31T01:22:35.357Z,100907.63
2022-07-31T01:25:37.341Z,100912.69
2022-07-31T01:28:27.092Z,100908.00
2022-07-31T01:31:28.210Z,100913.94
2022-07-31T01:34:11.405Z,100913.72
2022-07-31T01:36:41.095Z,100896.25
2022-07-31T01:39:08.941Z,100902.75
2022-07-31T01:41:40.005Z,100904.25
2022-07-31T01:44:14.040Z,100900.19
2022-07-31T01:46:43.937Z,100892.38
2022-07-31T01:49:13.688Z,100900.41
2022-07-31T01:51:42.197Z,100902.66
2022-07-31T01:54:10.566Z,100902.66
2022-07-31T01:56:38.540Z,100907.13
2022-07-31T01:59:17.084Z,100901.16
2022-07-31T02:02:09.735Z,100904.53
2022-07-31T02:04:37.734Z,100904.09
2022-07-31T02:07:08.240Z,100905.31
2022-07-31T02:09:36.405Z,100893.72
2022-07-31T02:12:09.434Z,100902.56
2022-07-31T02:14:40.837Z,100902.38
2022-07-31T02:17:09.379Z,100909.13
2022-07-31T02:20:00.315Z,100903.63
2022-07-31T02:22:29.715Z,100900.50
2022-07-31T02:24:57.508Z,100897.09
2022-07-31T02:27:54.310Z,100893.94
2022-07-31T02:30:16.411Z,100900.34
2022-07-31T02:32:47.366Z,100894.91
2022-07-31T02:35:16.669Z,100894.69
2022-07-31T02:37:47.580Z,100897.69
2022-07-31T02:40:15.240Z,100894.13
2022-07-31T02:42:42.871Z,100889.91
2022-07-31T02:45:10.913Z,100889.91
2022-07-31T02:47:39.244Z,100896.72
2022-07-31T02:50:11.745Z,100898.44
2022-07-31T02:52:39.431Z,100885.81
2022-07-31T02:55:07.338Z,100894.25
2022-07-31T02:57:35.492Z,100899.78
2022-07-31T03:00:23.211Z,100893.47
2022-07-31T03:02:54.101Z,100886.31
2022-07-31T03:05:23.425Z,100883.59
2022-07-31T03:07:51.043Z,100886.78
2022-07-31T03:10:20.172Z,100891.22
2022-07-31T03:13:06.154Z,100888.53
2022-07-31T03:15:34.077Z,100890.66
2022-07-31T03:18:01.655Z,100900.16
2022-07-31T03:20:42.063Z,100895.25
2022-07-31T03:23:12.169Z,100893.72
2022-07-31T03:25:50.430Z,100886.06
2022-07-31T03:28:19.753Z,100894.06
2022-07-31T03:30:50.381Z,100888.47
2022-07-31T03:33:18.828Z,100895.25
2022-07-31T03:35:46.961Z,100892.78
2022-07-31T03:38:38.662Z,100887.97
2022-07-31T03:41:04.851Z,100904.69
2022-07-31T03:43:44.357Z,100900.56
2022-07-31T03:46:19.868Z,100892.75
2022-07-31T03:48:48.326Z,100906.16
2022-07-31T03:51:16.018Z,100898.66
2022-07-31T03:53:44.371Z,100905.16
2022-07-31T03:56:25.302Z,100900.13
2022-07-31T03:58:53.270Z,100899.88
2022-07-31T04:01:22.300Z,100898.22
2022-07-31T04:04:00.826Z,100901.16
2022-07-31T04:06:34.349Z,100909.88
2022-07-31T04:09:13.706Z,100900.41
2022-07-31T04:11:47.031Z,100901.53
2022-07-31T04:14:14.733Z,100899.28
2022-07-31T04:16:42.481Z,100900.88
2022-07-31T04:19:10.559Z,100901.13
2022-07-31T04:21:38.328Z,100902.63
2022-07-31T04:24:06.657Z,100896.47
2022-07-31T04:26:57.462Z,100893.56
2022-07-31T04:29:31.906Z,100900.59
2022-07-31T04:31:59.553Z,100893.59
2022-07-31T04:34:34.102Z,100896.38
2022-07-31T04:37:01.814Z,100896.28
2022-07-31T04:39:29.608Z,100900.84
2022-07-31T04:41:58.502Z,100887.38
2022-07-31T04:44:26.405Z,100895.63
2022-07-31T04:47:05.609Z,100893.84
2022-07-31T04:49:37.057Z,100893.78
2022-07-31T04:52:06.168Z,100888.16
2022-07-31T04:54:34.364Z,100899.22
2022-07-31T04:57:02.551Z,100895.00
2022-07-31T04:59:59.686Z,100892.94
2022-07-31T05:02:18.754Z,100892.19
2022-07-31T05:04:46.299Z,100899.06
2022-07-31T05:07:26.658Z,100890.97
2022-07-31T05:09:58.859Z,100886.34
2022-07-31T05:12:27.188Z,100887.25
2022-07-31T05:14:55.564Z,100879.38
2022-07-31T05:17:23.285Z,100868.88
2022-07-31T05:20:13.820Z,100875.34
2022-07-31T05:23:10.806Z,100868.53
2022-07-31T05:25:53.885Z,100872.06
2022-07-31T05:28:29.615Z,100867.53
2022-07-31T05:30:58.353Z,100864.19
2022-07-31T05:33:26.124Z,100862.69
2022-07-31T05:35:54.165Z,100853.28
2022-07-31T05:38:23.311Z,100861.22
2022-07-31T05:41:17.656Z,100856.63
2022-07-31T05:44:08.262Z,100853.28
2022-07-31T05:46:42.654Z,100856.22
2022-07-31T05:49:11.066Z,100855.72
2022-07-31T05:51:39.218Z,100855.25
2022-07-31T05:54:06.881Z,100858.72
2022-07-31T05:56:53.103Z,100861.44
2022-07-31T05:59:26.837Z,100851.94
2022-07-31T06:01:54.784Z,100853.56
2022-07-31T06:04:24.537Z,100867.50
2022-07-31T06:06:52.576Z,100871.88
2022-07-31T06:09:24.107Z,100866.19
2022-07-31T06:11:52.229Z,100862.53
2022-07-31T06:14:20.664Z,100866.75
2022-07-31T06:17:14.902Z,100861.53
2022-07-31T06:19:42.911Z,100864.88
2022-07-31T06:22:12.153Z,100860.13
2022-07-31T06:24:41.697Z,100855.63
2022-07-31T06:27:14.904Z,100859.03
2022-07-31T06:29:59.508Z,100857.09
2022-07-31T06:32:27.236Z,100862.13
2022-07-31T06:34:55.684Z,100857.63
2022-07-31T06:37:23.511Z,100850.09
2022-07-31T06:39:55.726Z,100851.78
2022-07-31T06:42:42.661Z,100848.56
2022-07-31T06:45:10.833Z,100855.84
2022-07-31T06:47:56.889Z,100846.59
2022-07-31T06:50:35.985Z,100844.38
2022-07-31T06:53:23.566Z,100843.06
2022-07-31T06:55:52.474Z,100840.03
2022-07-31T06:58:20.202Z,100835.53
2022-07-31T07:00:48.199Z,100837.19
2022-07-31T07:03:17.528Z,100835.44
2022-07-31T07:05:45.534Z,100837.34
2022-07-31T07:08:14.823Z,100828.59
2022-07-31T07:10:44.289Z,100829.34
2022-07-31T07:13:23.649Z,100828.09
2022-07-31T07:15:51.448Z,100812.97
2022-07-31T07:18:22.245Z,100816.19
2022-07-31T07:20:52.783Z,100814.47
2022-07-31T07:23:21.547Z,100818.06
2022-07-31T07:25:56.015Z,100819.31
2022-07-31T07:28:30.898Z,100807.59
2022-07-31T07:31:02.187Z,100814.00
2022-07-31T07:33:40.924Z,100811.31
2022-07-31T07:36:24.041Z,100805.41
2022-07-31T07:39:03.031Z,100800.34
2022-07-31T07:41:32.743Z,100802.50
2022-07-31T07:44:01.582Z,100803.28
2022-07-31T07:46:30.820Z,100797.81
2022-07-31T07:49:02.423Z,100808.03
2022-07-31T07:51:36.501Z,100803.81
2022-07-31T07:54:24.542Z,100789.97
2022-07-31T07:57:15.433Z,100795.59
2022-07-31T08:00:04.131Z,100795.47
2022-07-31T08:03:47.054Z,100790.25
2022-07-31T08:05:33.460Z,100787.28
2022-07-31T08:08:01.563Z,100781.09
2022-07-31T08:10:41.668Z,100788.88
2022-07-31T08:13:12.821Z,100778.13
2022-07-31T08:15:59.256Z,100791.09
2022-07-31T08:18:42.745Z,100777.25
2022-07-31T08:21:10.741Z,100785.16
2022-07-31T08:23:38.361Z,100773.97
2022-07-31T08:26:08.761Z,100781.53
2022-07-31T08:28:36.678Z,100782.75
2022-07-31T08:31:04.377Z,100765.19
2022-07-31T08:33:36.063Z,100780.16
2022-07-31T08:36:05.051Z,100781.56
2022-07-31T08:38:33.506Z,100771.72
2022-07-31T08:41:21.510Z,100773.44
2022-07-31T08:44:00.113Z,100766.53
2022-07-31T08:46:40.830Z,100752.13
2022-07-31T08:49:10.197Z,100760.59
2022-07-31T08:51:50.947Z,100756.97
2022-07-31T08:54:52.114Z,100749.50
2022-07-31T08:57:21.121Z,100741.41
2022-07-31T08:59:52.570Z,100741.97
2022-07-31T09:02:21.079Z,100747.09
2022-07-31T09:05:09.004Z,100741.97
2022-07-31T09:07:37.634Z,100741.97
2022-07-31T09:10:26.977Z,100726.69
2022-07-31T09:12:56.142Z,100731.22
2022-07-31T09:15:30.740Z,100732.84
2022-07-31T09:18:01.712Z,100736.13
2022-07-31T09:20:30.349Z,100733.00
2022-07-31T09:23:07.926Z,100726.50
2022-07-31T09:25:39.773Z,100723.88
2022-07-31T09:28:07.883Z,100723.91
2022-07-31T09:30:56.304Z,100718.50
2022-07-31T09:33:32.032Z,100722.28
2022-07-31T09:36:23.738Z,100716.25
2022-07-31T09:38:58.043Z,100708.09
2022-07-31T09:42:01.416Z,100711.75
2022-07-31T09:44:38.292Z,100705.59
2022-07-31T09:47:06.817Z,100707.81
2022-07-31T09:49:35.947Z,100709.75
2022-07-31T09:52:04.741Z,100709.16
2022-07-31T09:54:33.902Z,100705.94
2022-07-31T09:57:15.560Z,100706.69
2022-07-31T09:59:46.472Z,100706.06
2022-07-31T10:02:16.582Z,100697.66
2022-07-31T10:04:48.024Z,100689.03
2022-07-31T10:07:31.597Z,100693.66
2022-07-31T10:10:24.201Z,100691.13
2022-07-31T10:13:02.228Z,100691.06
2022-07-31T10:15:31.072Z,100687.63
2022-07-31T10:18:19.825Z,100686.97
2022-07-31T10:21:44.909Z,100683.50
2022-07-31T10:24:28.489Z,100677.84
2022-07-31T10:27:08.068Z,100679.59
2022-07-31T10:29:41.758Z,100689.66
2022-07-31T10:32:11.146Z,100690.06
2022-07-31T10:34:50.169Z,100678.09
2022-07-31T10:37:55.703Z,100676.16
2022-07-31T10:40:49.856Z,100667.00
2022-07-31T10:43:36.416Z,100660.38
2022-07-31T10:46:30.176Z,100669.47
2022-07-31T10:49:16.461Z,100652.66
2022-07-31T10:52:32.588Z,100654.09
2022-07-31T10:55:22.599Z,100654.44
2022-07-31T10:58:30.244Z,100640.38
2022-07-31T11:01:08.706Z,100640.47
2022-07-31T11:03:50.192Z,100633.91
2022-07-31T11:06:45.117Z,100641.88
2022-07-31T11:09:50.679Z,100634.97
2022-07-31T11:12:38.322Z,100624.41
2022-07-31T11:15:27.582Z,100630.34
2022-07-31T11:18:24.983Z,100632.84
2022-07-31T11:21:22.759Z,100631.19
2022-07-31T11:24:02.786Z,100623.25
2022-07-31T11:26:41.308Z,100631.28
2022-07-31T11:30:01.551Z,100612.22
2022-07-31T11:32:14.277Z,100618.81
2022-07-31T11:34:49.333Z,100608.31
2022-07-31T11:37:22.993Z,100610.78
2022-07-31T11:39:52.436Z,100602.44
2022-07-31T11:42:26.585Z,100592.00
2022-07-31T11:45:11.155Z,100594.63
2022-07-31T11:48:12.394Z,100585.75
2022-07-31T11:50:44.982Z,100588.19
2022-07-31T11:53:14.117Z,100589.78
2022-07-31T11:55:51.557Z,100590.91
2022-07-31T11:58:21.183Z,100591.50
2022-07-31T12:01:08.212Z,100586.50
2022-07-31T12:03:38.286Z,100593.16
2022-07-31T12:06:07.427Z,100596.50
2022-07-31T12:08:36.877Z,100597.91
2022-07-31T12:11:05.577Z,100591.66
2022-07-31T12:13:34.658Z,100578.03
2022-07-31T12:16:03.559Z,100580.56
2022-07-31T12:18:53.959Z,100575.31
2022-07-31T12:21:31.615Z,100579.47
2022-07-31T12:23:59.266Z,100573.75
2022-07-31T12:26:28.787Z,100571.47
2022-07-31T12:29:10.651Z,100566.03
2022-07-31T12:31:47.268Z,100567.88
2022-07-31T12:34:29.919Z,100566.25
2022-07-31T12:37:17.133Z,100557.78
2022-07-31T12:39:59.643Z,100548.72
2022-07-31T12:42:35.269Z,100549.56
2022-07-31T12:45:19.708Z,100539.94
2022-07-31T12:47:51.183Z,100542.28
2022-07-31T12:50:22.467Z,100541.25
2022-07-31T12:52:50.419Z,100534.59
2022-07-31T12:55:18.670Z,100539.19
2022-07-31T12:57:50.552Z,100527.66
2022-07-31T13:00:23.643Z,100525.56
2022-07-31T13:02:52.835Z,100532.63
2022-07-31T13:05:22.798Z,100517.88
2022-07-31T13:07:50.973Z,100518.44
2022-07-31T13:10:21.736Z,100511.72
2022-07-31T13:12:52.501Z,100523.00
2022-07-31T13:15:30.104Z,100512.47
2022-07-31T13:18:00.618Z,100509.31
2022-07-31T13:20:28.245Z,100514.75
2022-07-31T13:22:59.529Z,100512.75
2022-07-31T13:25:30.850Z,100508.78
2022-07-31T13:27:59.112Z,100508.34
2022-07-31T13:30:30.883Z,100512.88
2022-07-31T13:32:59.341Z,100503.38
2022-07-31T13:35:29.229Z,100501.53
2022-07-31T13:37:57.541Z,100495.84
2022-07-31T13:40:44.783Z,100499.63
2022-07-31T13:43:14.108Z,100492.06
2022-07-31T13:45:42.484Z,100488.75
2022-07-31T13:48:10.666Z,100479.53
2022-07-31T13:50:40.205Z,100494.22
2022-07-31T13:53:08.808Z,100492.28
2022-07-31T13:55:37.589Z,100486.03
2022-07-31T13:58:05.339Z,100472.19
2022-07-31T14:00:34.348Z,100473.94
2022-07-31T14:03:02.380Z,100475.41
2022-07-31T14:05:37.984Z,100477.47
2022-07-31T14:08:30.620Z,100472.66
2022-07-31T14:10:57.633Z,100471.94
2022-07-31T14:13:26.220Z,100462.47
2022-07-31T14:15:54.392Z,100466.13
2022-07-31T14:18:23.866Z,100464.47
2022-07-31T14:20:52.342Z,100459.78
2022-07-31T14:23:27.850Z,100460.09
2022-07-31T14:26:03.851Z,100463.41
2022-07-31T14:28:32.401Z,100450.06
2022-07-31T14:31:00.989Z,100449.44
2022-07-31T14:33:28.994Z,100454.50
2022-07-31T14:35:56.829Z,100447.22
2022-07-31T14:38:27.405Z,100450.53
2022-07-31T14:40:57.726Z,100443.22
2022-07-31T14:43:26.497Z,100435.53
2022-07-31T14:45:54.154Z,100434.59
2022-07-31T14:48:22.592Z,100430.16
2022-07-31T14:50:50.779Z,100432.88
2022-07-31T14:53:19.439Z,100425.91
2022-07-31T14:55:47.519Z,100437.41
2022-07-31T14:58:15.862Z,100427.25
2022-07-31T15:00:44.153Z,100425.16
2022-07-31T15:03:12.324Z,100427.13
2022-07-31T15:06:51.098Z,100430.28
2022-07-31T15:08:29.046Z,100426.84
2022-07-31T15:10:56.691Z,100423.31
2022-07-31T15:13:24.485Z,100420.47
2022-07-31T15:15:52.104Z,100420.34
2022-07-31T15:18:19.744Z,100422.63
2022-07-31T15:20:47.552Z,100417.66
2022-07-31T15:23:15.191Z,100418.66
2022-07-31T15:25:42.800Z,100419.75
2022-07-31T15:28:10.400Z,100414.31
2022-07-31T15:30:38.176Z,100411.06
2022-07-31T15:33:05.761Z,100413.38
2022-07-31T15:35:33.381Z,100417.63
2022-07-31T15:38:02.370Z,100414.03
2022-07-31T15:40:30.005Z,100410.91
2022-07-31T15:42:57.986Z,100408.56
2022-07-31T15:45:25.633Z,100414.78
2022-07-31T15:47:53.481Z,100416.88
2022-07-31T15:50:21.101Z,100415.81
2022-07-31T15:52:49.544Z,100404.72
2022-07-31T15:55:17.361Z,100402.22
2022-07-31T15:57:45.112Z,100406.31
2022-07-31T16:00:14.710Z,100411.88
2022-07-31T16:02:43.027Z,100404.19
2022-07-31T16:05:22.020Z,100411.34
2022-07-31T16:08:30.274Z,100397.78
2022-07-31T16:10:54.004Z,100404.16
2022-07-31T16:13:23.574Z,100408.69
2022-07-31T16:15:51.261Z,100422.06
2022-07-31T16:18:19.036Z,100407.84
2022-07-31T16:20:47.100Z,100411.03
2022-07-31T16:23:14.839Z,100415.28
2022-07-31T16:25:42.448Z,100401.88
2022-07-31T16:28:10.193Z,100415.22
2022-07-31T16:30:38.129Z,100413.75
2022-07-31T16:33:05.800Z,100414.09
2022-07-31T16:35:33.452Z,100418.09
2022-07-31T16:38:01.069Z,100417.53
2022-07-31T16:40:31.909Z,100417.91
2022-07-31T16:43:01.499Z,100422.03
2022-07-31T16:45:29.980Z,100422.78
2022-07-31T16:47:57.981Z,100418.06
2022-07-31T16:50:25.989Z,100430.66
2022-07-31T16:52:55.127Z,100424.31
2022-07-31T16:55:51.510Z,100436.31
2022-07-31T16:58:12.308Z,100419.16
2022-07-31T17:00:40.150Z,100440.97
2022-07-31T17:03:58.879Z,100435.13
2022-07-31T17:05:56.102Z,100449.28
2022-07-31T17:08:24.304Z,100445.13
2022-07-31T17:10:54.617Z,100448.63
2022-07-31T17:13:23.185Z,100440.59
2022-07-31T17:15:51.085Z,100447.47
2022-07-31T17:18:18.973Z,100446.91
2022-07-31T17:20:47.297Z,100447.19
2022-07-31T17:23:15.652Z,100450.75
2022-07-31T17:25:43.575Z,100461.81
2022-07-31T17:28:15.228Z,100459.16
2022-07-31T17:30:45.137Z,100473.03
2022-07-31T17:33:12.890Z,100465.63
2022-07-31T17:35:40.569Z,100471.63
2022-07-31T17:38:08.406Z,100480.66
2022-07-31T17:40:44.204Z,100469.84
2022-07-31T17:43:13.306Z,100476.34
2022-07-31T17:45:59.743Z,100475.31
2022-07-31T17:48:29.599Z,100486.00
2022-07-31T17:50:57.494Z,100482.16
2022-07-31T17:53:54.415Z,100489.72
2022-07-31T17:56:13.316Z,100493.94
2022-07-31T17:58:43.221Z,100494.81
2022-07-31T18:01:11.164Z,100484.56
2022-07-31T18:03:39.045Z,100493.78
2022-07-31T18:06:06.993Z,100492.13
2022-07-31T18:08:34.912Z,100493.00
2022-07-31T18:11:02.600Z,100494.66
2022-07-31T18:13:30.280Z,100490.19
2022-07-31T18:16:06.911Z,100499.06
2022-07-31T18:18:35.077Z,100490.72
2022-07-31T18:21:02.750Z,100491.25
2022-07-31T18:23:32.224Z,100490.66
2022-07-31T18:26:00.580Z,100497.91
2022-07-31T18:28:28.183Z,100500.38
2022-07-31T18:30:55.877Z,100498.06
2022-07-31T18:33:23.667Z,100496.34
2022-07-31T18:35:51.392Z,100498.56
2022-07-31T18:38:19.223Z,100499.47
2022-07-31T18:40:46.943Z,100512.28
2022-07-31T18:43:14.799Z,100500.88
2022-07-31T18:45:42.440Z,100498.63
2022-07-31T18:48:10.126Z,100500.53
2022-07-31T18:51:01.114Z,100504.75
2022-07-31T18:53:26.284Z,100499.44
2022-07-31T18:55:53.855Z,100505.03
2022-07-31T18:58:21.455Z,100496.69
2022-07-31T19:00:54.566Z,100497.81
2022-07-31T19:03:25.917Z,100490.56
2022-07-31T19:05:54.889Z,100489.72
2022-07-31T19:08:26.328Z,100494.44
2022-07-31T19:10:54.564Z,100488.81
2022-07-31T19:13:23.520Z,100489.09
2022-07-31T19:15:53.281Z,100496.59
2022-07-31T19:18:28.649Z,100490.19
2022-07-31T19:21:21.276Z,100500.75
2022-07-31T19:23:46.776Z,100492.41
2022-07-31T19:26:15.407Z,100498.25
2022-07-31T19:28:46.669Z,100492.69
2022-07-31T19:31:14.872Z,100487.91
2022-07-31T19:33:43.063Z,100488.47
2022-07-31T19:36:11.342Z,100490.13
2022-07-31T19:38:46.051Z,100490.97
2022-07-31T19:41:15.964Z,100493.19
2022-07-31T19:43:47.020Z,100485.97
2022-07-31T19:46:14.914Z,100487.28
2022-07-31T19:48:45.894Z,100488.97
2022-07-31T19:51:14.945Z,100486.16
2022-07-31T19:53:43.858Z,100477.81
2022-07-31T19:56:16.869Z,100480.31
2022-07-31T19:58:49.149Z,100476.94
2022-07-31T20:01:17.375Z,100478.38
2022-07-31T20:03:45.211Z,100474.19
2022-07-31T20:06:13.393Z,100471.09
2022-07-31T20:08:41.716Z,100485.88
2022-07-31T20:11:11.501Z,100477.53
2022-07-31T20:13:40.400Z,100478.97
2022-07-31T20:16:08.948Z,100482.59
2022-07-31T20:18:38.126Z,100477.59
2022-07-31T20:21:08.131Z,100474.00
2022-07-31T20:23:38.979Z,100475.97
2022-07-31T20:26:08.160Z,100474.31
2022-07-31T20:28:36.637Z,100480.16
2022-07-31T20:31:05.067Z,100475.72
2022-07-31T20:33:32.859Z,100471.00
2022-07-31T20:36:01.682Z,100474.16
2022-07-31T20:38:32.124Z,100466.94
2022-07-31T20:41:00.307Z,100468.91
2022-07-31T20:43:29.493Z,100467.81
2022-07-31T20:45:59.057Z,100463.94
2022-07-31T20:48:32.636Z,100467.31
2022-07-31T20:51:02.084Z,100455.34
2022-07-31T20:53:30.800Z,100458.13
2022-07-31T20:55:58.767Z,100468.44
2022-07-31T20:58:28.665Z,100459.56
2022-07-31T21:00:56.984Z,100456.22
2022-07-31T21:03:24.986Z,100455.63
2022-07-31T21:05:53.488Z,100451.19
2022-07-31T21:08:21.630Z,100459.56
2022-07-31T21:10:50.846Z,100460.66
2022-07-31T21:13:19.241Z,100461.47
2022-07-31T21:15:47.782Z,100462.06
2022-07-31T21:18:17.766Z,100451.16
2022-07-31T21:20:51.811Z,100457.84
2022-07-31T21:23:22.975Z,100461.47
2022-07-31T21:25:54.835Z,100462.56
2022-07-31T21:28:23.369Z,100465.13
2022-07-31T21:30:53.389Z,100463.69
2022-07-31T21:33:21.803Z,100456.19
2022-07-31T21:35:50.597Z,100455.06
2022-07-31T21:38:19.314Z,100457.63
2022-07-31T21:40:47.896Z,100455.94
2022-07-31T21:43:16.918Z,100451.47
2022-07-31T21:45:55.635Z,100449.25
2022-07-31T21:48:26.433Z,100458.44
2022-07-31T21:50:54.908Z,100460.09
2022-07-31T21:53:24.200Z,100455.09
2022-07-31T21:55:52.238Z,100453.97
2022-07-31T21:58:20.299Z,100446.47
2022-07-31T22:00:48.385Z,100451.19
2022-07-31T22:03:16.651Z,100444.75
2022-07-31T22:06:03.087Z,100437.50
2022-07-31T22:08:31.041Z,100447.84
2022-07-31T22:11:00.301Z,100440.31
2022-07-31T22:13:29.217Z,100442.28
2022-07-31T22:16:00.168Z,100442.00
2022-07-31T22:18:33.473Z,100446.47
2022-07-31T22:21:03.531Z,100443.38
2022-07-31T22:23:35.246Z,100447.88
2022-07-31T22:26:03.805Z,100432.81
2022-07-31T22:28:32.327Z,100439.50
2022-07-31T22:31:00.921Z,100435.59
2022-07-31T22:33:29.248Z,100439.50
2022-07-31T22:35:58.296Z,100445.63
2022-07-31T22:38:31.666Z,100440.31
2022-07-31T22:41:00.392Z,100441.16
2022-07-31T22:44:12.090Z,100442.28
2022-07-31T22:46:17.963Z,100448.41
2022-07-31T22:48:46.239Z,100450.06
2022-07-31T22:51:15.772Z,100457.88
2022-07-31T22:53:44.187Z,100460.66
2022-07-31T22:56:13.287Z,100466.53
2022-07-31T22:58:41.163Z,100481.56
2022-07-31T23:01:09.109Z,100491.25
2022-07-31T23:03:37.303Z,100502.94
2022-07-31T23:06:31.761Z,100501.28
2022-07-31T23:08:54.743Z,100499.59
2022-07-31T23:11:24.810Z,100493.47
2022-07-31T23:13:53.172Z,100486.97
2022-07-31T23:16:21.368Z,100482.78
2022-07-31T23:18:50.172Z,100470.47
2022-07-31T23:21:19.018Z,100479.25
2022-07-31T23:23:48.785Z,100463.97
2022-07-31T23:26:19.142Z,100458.09
2022-07-31T23:28:47.714Z,100440.50
2022-07-31T23:31:15.632Z,100438.34
2022-07-31T23:33:44.390Z,100432.84
2022-07-31T23:36:12.692Z,100436.00
2022-07-31T23:38:40.797Z,100432.47
2022-07-31T23:41:08.852Z,100428.50
2022-07-31T23:43:36.963Z,100430.88
2022-07-31T23:46:05.881Z,100422.31
2022-07-31T23:48:36.728Z,100424.69
2022-07-31T23:51:09.112Z,100420.50
2022-07-31T23:53:37.801Z,100424.41
2022-07-31T23:56:06.829Z,100423.84
2022-07-31T23:58:47.843Z,100418.31
